Time;durP1;ratioP1;P1;durP2;ratioP2;P2;SDS_P1;SDS_P2;PMS_P1;PMS_P2;Temp;Humidity;BMP_temperature;BMP_pressure;BME280_temperature;BME280_humidity;BME280_pressure;Samples;Min_cycle;Max_cycle;Signal;HPM_P1;HPM_P2
2021/06/14 00:01:56;;;;;;;2.63;2.30;;;19.20;99.90;;;;;;5082649;28;20606;-54
2021/06/14 00:04:27;;;;;;;2.10;2.00;;;19.20;99.90;;;;;;5083038;28;20493;-56
2021/06/14 00:06:59;;;;;;;2.40;2.17;;;18.90;99.90;;;;;;5083347;28;20494;-55
2021/06/14 00:09:30;;;;;;;3.33;2.30;;;19.00;99.90;;;;;;5081647;28;20498;-54
2021/06/14 00:12:02;;;;;;;2.87;2.67;;;19.00;99.90;;;;;;5082513;28;20446;-56
2021/06/14 00:14:35;;;;;;;3.10;1.90;;;18.90;99.90;;;;;;5082745;28;20475;-50
2021/06/14 00:17:06;;;;;;;3.20;2.40;;;19.00;99.90;;;;;;5082657;28;20467;-54
2021/06/14 00:19:37;;;;;;;2.30;2.00;;;19.10;99.90;;;;;;5082448;28;20436;-53
2021/06/14 00:22:08;;;;;;;1.60;1.50;;;19.20;99.90;;;;;;5082146;28;20447;-52
2021/06/14 00:24:39;;;;;;;1.50;1.13;;;19.30;99.90;;;;;;5081270;28;20448;-54
2021/06/14 00:27:12;;;;;;;1.30;1.20;;;19.40;99.90;;;;;;5082071;28;20518;-53
2021/06/14 00:29:45;;;;;;;1.60;1.50;;;19.50;99.90;;;;;;5082005;28;20515;-58
2021/06/14 00:32:15;;;;;;;3.27;1.50;;;19.70;99.90;;;;;;5082224;28;20443;-54
2021/06/14 00:34:46;;;;;;;1.40;1.30;;;19.80;99.90;;;;;;5082427;28;20459;-61
2021/06/14 00:37:17;;;;;;;1.60;1.50;;;19.70;99.90;;;;;;5082273;28;20454;-49
2021/06/14 00:39:48;;;;;;;1.80;1.30;;;19.80;99.90;;;;;;5081166;28;20466;-49
2021/06/14 00:42:19;;;;;;;1.33;1.23;;;19.80;99.90;;;;;;5081485;28;20483;-54
2021/06/14 00:44:52;;;;;;;1.60;1.50;;;19.70;99.90;;;;;;5082547;28;20474;-55
2021/06/14 00:47:24;;;;;;;2.63;1.40;;;19.60;99.90;;;;;;5081928;28;20494;-59
2021/06/14 00:49:55;;;;;;;2.00;1.90;;;19.60;99.90;;;;;;5079175;28;20487;-51
2021/06/14 00:52:27;;;;;;;2.93;1.90;;;19.70;99.90;;;;;;5081089;28;20455;-57
2021/06/14 00:54:58;;;;;;;2.40;2.20;;;19.60;99.90;;;;;;5080857;28;20459;-59
2021/06/14 00:57:29;;;;;;;1.80;1.70;;;19.60;99.90;;;;;;5076338;28;20493;-56
2021/06/14 01:00:02;;;;;;;2.10;2.00;;;19.60;99.90;;;;;;5081900;28;20489;-54
2021/06/14 01:02:34;;;;;;;4.13;3.83;;;19.50;99.90;;;;;;5074964;28;20447;-53
2021/06/14 01:05:07;;;;;;;2.63;2.43;;;19.40;99.90;;;;;;5082341;28;20448;-53
2021/06/14 01:07:38;;;;;;;2.77;2.57;;;19.40;99.90;;;;;;5082616;28;20433;-54
2021/06/14 01:10:10;;;;;;;2.87;2.67;;;19.40;99.90;;;;;;5080918;28;20462;-51
2021/06/14 01:12:47;;;;;;;2.30;2.20;;;19.30;99.90;;;;;;5081704;28;20426;-50
2021/06/14 01:15:22;;;;;;;5.30;4.90;;;19.30;99.90;;;;;;5082297;28;20465;-50
2021/06/14 01:17:58;;;;;;;11.13;10.43;;;19.20;99.90;;;;;;5082865;28;20440;-53
2021/06/14 01:20:50;;;;;;;4.00;3.70;;;19.30;99.90;;;;;;5066431;28;20466;-52
2021/06/14 01:23:45;;;;;;;3.90;3.60;;;19.30;99.90;;;;;;5084419;28;20458;-50
2021/06/14 01:26:19;;;;;;;4.47;4.17;;;19.20;99.90;;;;;;5078685;28;20455;-52
2021/06/14 01:28:54;;;;;;;4.93;4.53;;;19.10;99.90;;;;;;5071255;28;20447;-55
2021/06/14 01:31:28;;;;;;;10.10;9.40;;;19.00;99.90;;;;;;5086109;28;20508;-52
2021/06/14 01:34:00;;;;;;;12.17;11.20;;;19.00;99.90;;;;;;5085491;28;20436;-54
2021/06/14 01:36:35;;;;;;;13.37;12.07;;;19.10;99.90;;;;;;5085518;28;20562;-53
2021/06/14 01:39:08;;;;;;;7.57;6.97;;;19.00;99.90;;;;;;5084722;28;20496;-54
2021/06/14 01:41:41;;;;;;;5.97;5.57;;;18.90;99.90;;;;;;5085428;28;20454;-54
2021/06/14 01:44:15;;;;;;;5.57;5.07;;;18.80;99.90;;;;;;5084653;28;20463;-52
2021/06/14 01:46:50;;;;;;;5.00;4.60;;;18.80;99.90;;;;;;5081514;28;20460;-53
2021/06/14 01:49:23;;;;;;;4.10;3.80;;;18.70;99.90;;;;;;5084791;28;20493;-51
2021/06/14 01:51:54;;;;;;;4.60;4.20;;;18.70;99.90;;;;;;5085552;28;20903;-51
2021/06/14 01:54:26;;;;;;;4.13;3.83;;;18.80;99.90;;;;;;5084372;28;20448;-50
2021/06/14 01:57:00;;;;;;;3.70;3.40;;;18.80;99.90;;;;;;5085725;28;20444;-52
2021/06/14 01:59:36;;;;;;;4.20;3.90;;;18.70;99.90;;;;;;5084988;28;20447;-51
2021/06/14 02:02:08;;;;;;;3.97;3.67;;;18.60;99.90;;;;;;5084855;28;20893;-52
2021/06/14 02:04:44;;;;;;;3.60;3.40;;;18.60;99.90;;;;;;5083596;28;20448;-53
2021/06/14 02:07:16;;;;;;;5.13;4.73;;;18.70;99.90;;;;;;5085102;28;20444;-50
2021/06/14 02:09:47;;;;;;;3.20;3.00;;;18.80;99.90;;;;;;5083787;28;20593;-51
2021/06/14 02:12:18;;;;;;;4.40;4.10;;;18.80;99.90;;;;;;5085897;28;20443;-51
2021/06/14 02:14:51;;;;;;;5.00;4.60;;;18.90;99.90;;;;;;5084263;28;20448;-51
2021/06/14 02:17:25;;;;;;;8.10;7.50;;;19.00;99.90;;;;;;5071579;28;20450;-50
2021/06/14 02:19:56;;;;;;;11.33;10.50;;;18.90;99.90;;;;;;5084173;28;20426;-52
2021/06/14 02:22:28;;;;;;;4.90;4.50;;;18.90;99.90;;;;;;5084421;28;20541;-49
2021/06/14 02:24:59;;;;;;;4.20;3.90;;;18.90;99.90;;;;;;5083649;28;20458;-49
2021/06/14 02:27:29;;;;;;;3.30;3.00;;;18.80;99.90;;;;;;5085468;28;20422;-54
2021/06/14 02:30:03;;;;;;;3.37;3.07;;;18.80;99.90;;;;;;5084321;28;20513;-54
2021/06/14 02:32:35;;;;;;;4.13;3.73;;;18.60;99.90;;;;;;5084569;28;20426;-50
2021/06/14 02:35:07;;;;;;;4.70;3.90;;;18.50;99.90;;;;;;5083931;28;20435;-49
2021/06/14 02:37:41;;;;;;;4.20;3.80;;;18.50;99.90;;;;;;5084904;28;20463;-54
2021/06/14 02:40:13;;;;;;;4.10;3.80;;;18.40;99.90;;;;;;5083753;28;20470;-54
2021/06/14 02:42:46;;;;;;;7.30;6.60;;;18.40;99.90;;;;;;5085311;28;20443;-49
2021/06/14 02:45:19;;;;;;;7.97;7.17;;;18.30;99.90;;;;;;5083066;28;20527;-51
2021/06/14 02:47:51;;;;;;;7.10;5.47;;;18.40;99.90;;;;;;5084136;28;21037;-53
2021/06/14 02:50:25;;;;;;;4.03;3.70;;;18.40;99.90;;;;;;5083997;28;20483;-50
2021/06/14 02:52:58;;;;;;;3.87;3.10;;;18.50;99.90;;;;;;5084750;28;20478;-51
2021/06/14 02:55:33;;;;;;;3.93;3.50;;;18.40;99.90;;;;;;5083261;28;20426;-50
2021/06/14 02:58:06;;;;;;;3.23;3.03;;;18.40;99.90;;;;;;5084981;28;20440;-50
2021/06/14 03:00:39;;;;;;;2.97;2.77;;;18.30;99.90;;;;;;5083207;28;20567;-50
2021/06/14 03:03:10;;;;;;;4.50;2.93;;;18.30;99.90;;;;;;5083325;28;20498;-54
2021/06/14 03:05:46;;;;;;;3.00;2.80;;;18.30;99.90;;;;;;5082373;28;20432;-53
2021/06/14 03:08:19;;;;;;;3.80;3.40;;;18.30;99.90;;;;;;5084076;28;20455;-50
2021/06/14 03:10:51;;;;;;;3.20;3.00;;;18.20;99.90;;;;;;5082370;28;20470;-51
2021/06/14 03:13:22;;;;;;;3.37;3.10;;;18.30;99.90;;;;;;5083058;28;20435;-51
2021/06/14 03:15:55;;;;;;;4.10;3.03;;;18.30;99.90;;;;;;5083753;28;20487;-50
2021/06/14 03:18:26;;;;;;;4.00;3.70;;;18.20;99.90;;;;;;5084195;28;20515;-52
2021/06/14 03:21:00;;;;;;;4.97;4.57;;;18.10;99.90;;;;;;5066266;28;20423;-49
2021/06/14 03:23:31;;;;;;;8.13;6.90;;;18.10;99.90;;;;;;5085981;28;20484;-52
2021/06/14 03:26:04;;;;;;;5.67;5.20;;;18.10;99.90;;;;;;5082825;28;20444;-48
2021/06/14 03:28:35;;;;;;;5.43;4.93;;;18.00;99.90;;;;;;5084264;28;20461;-49
2021/06/14 03:31:08;;;;;;;4.57;4.27;;;18.00;99.90;;;;;;5082944;28;20810;-54
2021/06/14 03:33:40;;;;;;;4.77;4.37;;;18.00;99.90;;;;;;5083369;28;20527;-52
2021/06/14 03:36:12;;;;;;;4.70;4.23;;;18.00;99.90;;;;;;5083084;28;20443;-50
2021/06/14 03:38:46;;;;;;;4.90;4.40;;;17.90;99.90;;;;;;5083657;28;20549;-49
2021/06/14 03:41:18;;;;;;;5.83;4.60;;;17.90;99.90;;;;;;5082076;28;20495;-52
2021/06/14 03:43:50;;;;;;;4.93;4.43;;;17.90;99.90;;;;;;5083576;28;20466;-53
2021/06/14 03:46:23;;;;;;;5.80;5.30;;;18.00;99.90;;;;;;5083032;28;20549;-46
2021/06/14 03:48:54;;;;;;;6.40;5.80;;;17.80;99.90;;;;;;5083552;28;20455;-52
2021/06/14 03:51:25;;;;;;;4.60;4.20;;;17.80;99.90;;;;;;5081510;28;20461;-50
2021/06/14 03:53:59;;;;;;;5.00;4.50;;;17.80;99.90;;;;;;5082499;28;20632;-52
2021/06/14 03:56:32;;;;;;;5.30;4.80;;;17.80;99.90;;;;;;5082727;28;20464;-53
2021/06/14 03:59:04;;;;;;;7.07;5.60;;;17.80;99.90;;;;;;5083364;28;20451;-52
2021/06/14 04:01:37;;;;;;;4.73;4.33;;;17.80;99.90;;;;;;5082693;28;20515;-54
2021/06/14 04:04:23;;;;;;;4.83;4.43;;;17.80;99.90;;;;;;5081427;28;20450;-53
2021/06/14 04:06:54;;;;;;;5.80;5.30;;;17.70;99.90;;;;;;5083110;28;20482;-50
2021/06/14 04:09:25;;;;;;;5.03;4.63;;;17.70;99.90;;;;;;5081481;28;20445;-51
2021/06/14 04:11:56;;;;;;;5.80;4.97;;;17.70;99.90;;;;;;5080078;28;20502;-53
2021/06/14 04:14:27;;;;;;;6.20;5.47;;;17.60;99.90;;;;;;5078135;28;20448;-54
2021/06/14 04:17:00;;;;;;;5.73;5.23;;;17.50;99.90;;;;;;5078648;28;20544;-52
2021/06/14 04:19:31;;;;;;;4.77;4.37;;;17.60;99.90;;;;;;5081926;28;20478;-52
2021/06/14 04:22:05;;;;;;;4.90;4.50;;;17.60;99.90;;;;;;5081922;28;20482;-53
2021/06/14 04:24:36;;;;;;;5.70;5.30;;;17.60;99.90;;;;;;5081191;28;20459;-52
2021/06/14 04:27:08;;;;;;;5.30;4.90;;;17.60;99.90;;;;;;5082974;28;20444;-51
2021/06/14 04:29:39;;;;;;;6.23;5.67;;;17.60;99.90;;;;;;5082729;28;20454;-53
2021/06/14 04:32:12;;;;;;;6.47;5.90;;;17.70;99.90;;;;;;5079003;28;20482;-53
2021/06/14 04:34:43;;;;;;;6.60;6.10;;;17.70;99.90;;;;;;5066656;28;20455;-54
2021/06/14 04:37:14;;;;;;;7.73;5.93;;;17.80;99.90;;;;;;5083223;28;20458;-53
2021/06/14 04:39:45;;;;;;;5.97;5.40;;;17.80;99.90;;;;;;5081479;28;20477;-49
2021/06/14 04:42:16;;;;;;;6.00;5.50;;;17.70;99.90;;;;;;5082169;28;20435;-53
2021/06/14 04:44:47;;;;;;;6.80;6.13;;;17.60;99.90;;;;;;5082463;28;20473;-51
2021/06/14 04:47:20;;;;;;;5.60;5.10;;;17.50;99.90;;;;;;5082517;28;20497;-52
2021/06/14 04:49:51;;;;;;;6.07;5.47;;;17.50;99.90;;;;;;5082665;28;20447;-53
2021/06/14 04:52:22;;;;;;;6.17;5.20;;;17.60;99.90;;;;;;5082021;28;20529;-53
2021/06/14 04:54:56;;;;;;;5.60;5.00;;;17.60;99.90;;;;;;5081249;28;20451;-52
2021/06/14 04:57:28;;;;;;;6.07;5.50;;;17.60;99.90;;;;;;5082523;28;20919;-54
2021/06/14 05:00:01;;;;;;;5.37;4.87;;;17.50;99.90;;;;;;5082047;28;20458;-52
2021/06/14 05:02:34;;;;;;;5.80;5.30;;;17.50;99.90;;;;;;5083165;28;20497;-48
2021/06/14 05:05:06;;;;;;;5.50;5.00;;;17.60;99.90;;;;;;5080632;28;20447;-52
2021/06/14 05:07:37;;;;;;;4.80;4.50;;;17.50;99.90;;;;;;5086794;28;20879;-52
2021/06/14 05:10:09;;;;;;;6.30;5.53;;;17.50;99.90;;;;;;5085292;28;20478;-51
2021/06/14 05:12:41;;;;;;;6.13;5.60;;;17.50;99.90;;;;;;5085279;28;20499;-51
2021/06/14 05:15:13;;;;;;;6.47;5.90;;;17.50;99.90;;;;;;5085143;28;20436;-48
2021/06/14 05:17:47;;;;;;;6.70;5.80;;;17.50;99.90;;;;;;5086150;28;20447;-48
2021/06/14 05:20:18;;;;;;;5.73;5.13;;;17.50;99.90;;;;;;5085406;28;20448;-50
2021/06/14 05:22:49;;;;;;;6.00;5.40;;;17.50;99.90;;;;;;5090012;28;20477;-51
2021/06/14 05:25:20;;;;;;;6.03;5.50;;;17.50;99.90;;;;;;5087215;28;20439;-48
2021/06/14 05:27:51;;;;;;;5.87;5.47;;;17.60;99.90;;;;;;5070336;28;20529;-49
2021/06/14 05:30:23;;;;;;;6.33;5.30;;;17.40;99.90;;;;;;5085857;28;20451;-47
2021/06/14 05:32:59;;;;;;;5.77;5.27;;;17.30;99.90;;;;;;5085323;28;20486;-50
2021/06/14 05:35:30;;;;;;;5.37;4.97;;;17.30;99.90;;;;;;5085115;28;20451;-50
2021/06/14 05:38:01;;;;;;;6.73;5.37;;;17.30;99.90;;;;;;5086058;28;20447;-50
2021/06/14 05:40:33;;;;;;;5.83;5.10;;;17.30;99.90;;;;;;5084491;28;20452;-49
2021/06/14 05:43:04;;;;;;;6.30;5.80;;;17.30;99.90;;;;;;5085660;28;20447;-48
2021/06/14 05:45:35;;;;;;;6.23;5.67;;;17.10;99.90;;;;;;5084703;28;20448;-48
2021/06/14 05:48:09;;;;;;;5.00;4.60;;;17.10;99.90;;;;;;5085577;28;20481;-49
2021/06/14 05:50:40;;;;;;;6.83;6.17;;;17.00;99.90;;;;;;5085316;28;20948;-48
2021/06/14 05:53:11;;;;;;;6.10;5.70;;;16.90;99.90;;;;;;5085563;28;20483;-49
2021/06/14 05:55:42;;;;;;;6.23;5.73;;;16.80;99.90;;;;;;5082317;28;20432;-51
2021/06/14 05:58:13;;;;;;;6.10;5.50;;;16.70;99.90;;;;;;5081535;28;20456;-50
2021/06/14 06:00:45;;;;;;;6.97;6.40;;;16.60;99.90;;;;;;5085221;28;20491;-49
2021/06/14 06:03:18;;;;;;;6.83;6.33;;;16.70;99.90;;;;;;5085041;28;20510;-49
2021/06/14 06:05:49;;;;;;;6.97;6.40;;;16.70;99.90;;;;;;5084780;28;20462;-46
2021/06/14 06:08:20;;;;;;;8.53;7.63;;;16.70;99.90;;;;;;5075085;28;20443;-49
2021/06/14 06:10:51;;;;;;;7.87;7.07;;;16.70;99.90;;;;;;5083600;28;20515;-47
2021/06/14 06:13:23;;;;;;;9.33;8.07;;;16.70;99.90;;;;;;5085070;28;20471;-49
2021/06/14 06:15:54;;;;;;;7.67;7.07;;;16.80;99.90;;;;;;5083463;28;20489;-48
2021/06/14 06:18:27;;;;;;;8.17;7.10;;;16.80;99.90;;;;;;5068973;28;20929;-50
2021/06/14 06:20:58;;;;;;;7.70;7.10;;;16.80;99.90;;;;;;5073036;28;20447;-53
2021/06/14 06:23:29;;;;;;;6.80;6.20;;;16.80;99.90;;;;;;5085155;28;20638;-51
2021/06/14 06:26:01;;;;;;;7.40;6.70;;;16.80;99.90;;;;;;5083888;28;20444;-52
2021/06/14 06:28:32;;;;;;;8.23;7.53;;;16.80;99.90;;;;;;5085014;28;20473;-47
2021/06/14 06:31:03;;;;;;;8.00;7.20;;;16.70;99.90;;;;;;5081273;28;20522;-46
2021/06/14 06:33:35;;;;;;;7.53;6.73;;;16.70;99.90;;;;;;5084290;28;20518;-49
2021/06/14 06:36:07;;;;;;;7.13;6.53;;;16.70;99.90;;;;;;5084624;28;20497;-46
2021/06/14 06:38:38;;;;;;;7.50;6.80;;;16.70;99.90;;;;;;5084467;28;20447;-47
2021/06/14 06:41:11;;;;;;;7.43;6.83;;;16.70;99.90;;;;;;5067442;28;20455;-50
2021/06/14 06:43:42;;;;;;;6.87;6.27;;;16.70;99.90;;;;;;5084533;28;20440;-50
2021/06/14 06:49:04;;;;;;;6.40;5.80;;;16.80;99.90;;;;;;5083962;28;20470;-50
2021/06/14 06:51:38;;;;;;;6.57;5.97;;;16.70;99.90;;;;;;5084381;28;20456;-53
2021/06/14 06:54:13;;;;;;;6.93;6.27;;;16.60;99.90;;;;;;5083041;28;20455;-51
2021/06/14 06:56:51;;;;;;;7.70;6.90;;;16.50;99.90;;;;;;5084053;28;20535;-48
2021/06/14 06:59:23;;;;;;;6.90;6.30;;;16.50;99.90;;;;;;5083336;28;20787;-53
2021/06/14 07:01:54;;;;;;;7.33;6.63;;;16.40;99.90;;;;;;5083968;28;20781;-51
2021/06/14 07:04:27;;;;;;;6.37;5.87;;;16.40;99.90;;;;;;5083091;28;20482;-52
2021/06/14 07:06:58;;;;;;;6.30;5.80;;;16.40;99.90;;;;;;5083214;28;20505;-47
2021/06/14 07:09:29;;;;;;;6.90;6.30;;;16.40;99.90;;;;;;5082820;28;20458;-51
2021/06/14 07:12:02;;;;;;;6.60;6.10;;;16.30;99.90;;;;;;5083662;28;20989;-51
2021/06/14 07:14:33;;;;;;;6.47;5.87;;;16.30;99.90;;;;;;5083240;28;20527;-53
2021/06/14 07:17:04;;;;;;;7.60;7.00;;;16.30;99.90;;;;;;5083748;28;20537;-48
2021/06/14 07:19:37;;;;;;;7.60;6.90;;;16.40;99.90;;;;;;5082694;28;20523;-50
2021/06/14 07:22:08;;;;;;;8.40;6.73;;;16.40;99.90;;;;;;5083416;28;20456;-50
2021/06/14 07:24:39;;;;;;;7.80;7.20;;;16.40;99.90;;;;;;5086044;28;20454;-47
2021/06/14 07:27:13;;;;;;;6.83;6.23;;;16.40;99.90;;;;;;5081703;28;20451;-48
2021/06/14 07:29:44;;;;;;;8.73;8.03;;;16.30;99.90;;;;;;5083467;28;20488;-50
2021/06/14 07:32:15;;;;;;;6.43;5.93;;;16.30;99.90;;;;;;5083148;28;20494;-51
2021/06/14 07:34:48;;;;;;;8.57;7.77;;;16.30;99.90;;;;;;5083180;28;20455;-51
2021/06/14 07:37:19;;;;;;;7.23;6.60;;;16.30;99.90;;;;;;5082393;28;20443;-52
2021/06/14 07:39:50;;;;;;;8.13;7.43;;;16.30;99.90;;;;;;5081778;28;20465;-49
2021/06/14 07:42:21;;;;;;;7.67;6.87;;;16.40;99.90;;;;;;5083524;28;20505;-53
2021/06/14 07:44:52;;;;;;;7.50;6.80;;;16.40;99.90;;;;;;5082215;28;20478;-52
2021/06/14 07:47:24;;;;;;;7.47;6.87;;;16.50;99.90;;;;;;5083490;28;21605;-48
2021/06/14 07:49:57;;;;;;;7.53;6.60;;;16.50;99.90;;;;;;5082412;28;20451;-50
2021/06/14 07:52:28;;;;;;;8.73;7.70;;;16.50;99.90;;;;;;5083159;28;20494;-47
2021/06/14 07:54:59;;;;;;;7.47;6.80;;;16.50;99.90;;;;;;5082290;28;20500;-53
2021/06/14 07:57:30;;;;;;;8.87;8.10;;;16.50;99.90;;;;;;5083034;28;20844;-51
2021/06/14 08:00:00;;;;;;;7.73;7.00;;;16.40;99.90;;;;;;5082582;28;20505;-52
2021/06/14 08:02:35;;;;;;;6.43;5.93;;;16.40;99.90;;;;;;5083612;28;20466;-52
2021/06/14 08:05:10;;;;;;;7.57;6.87;;;16.50;99.90;;;;;;5082906;28;20835;-50
2021/06/14 08:07:41;;;;;;;6.93;6.23;;;16.60;99.90;;;;;;5082595;28;20447;-52
2021/06/14 08:10:17;;;;;;;7.30;6.70;;;16.60;99.90;;;;;;5077155;28;20452;-52
2021/06/14 08:12:50;;;;;;;8.30;7.60;;;16.60;99.90;;;;;;5082523;28;20486;-49
2021/06/14 08:15:23;;;;;;;7.23;6.63;;;16.70;99.90;;;;;;5082127;28;21623;-48
2021/06/14 08:17:58;;;;;;;7.40;6.80;;;16.70;99.90;;;;;;5083118;28;20454;-51
2021/06/14 08:20:34;;;;;;;7.53;6.83;;;16.70;99.90;;;;;;5072190;28;20451;-50
2021/06/14 08:25:53;;;;;;;6.70;6.20;;;16.70;99.90;;;;;;5081733;28;20452;-51
2021/06/14 08:28:24;;;;;;;6.87;6.27;;;16.70;99.90;;;;;;5081942;28;20444;-47
2021/06/14 08:30:55;;;;;;;6.70;6.10;;;16.70;99.90;;;;;;5082514;28;20486;-47
2021/06/14 08:33:26;;;;;;;7.07;6.40;;;16.60;99.90;;;;;;5083281;28;20487;-47
2021/06/14 08:35:59;;;;;;;6.90;6.40;;;16.60;99.90;;;;;;5082578;28;20452;-48
2021/06/14 08:38:32;;;;;;;7.50;6.90;;;16.60;99.90;;;;;;5081841;28;20529;-48
2021/06/14 08:41:03;;;;;;;7.27;6.67;;;16.60;99.90;;;;;;5082029;28;20451;-48
2021/06/14 08:43:34;;;;;;;8.20;7.50;;;16.60;99.90;;;;;;5082282;28;20463;-51
2021/06/14 08:46:05;;;;;;;7.57;6.97;;;16.60;99.90;;;;;;5077953;28;20455;-49
2021/06/14 08:48:37;;;;;;;8.37;7.63;;;16.60;99.90;;;;;;5083132;28;20448;-47
2021/06/14 08:51:10;;;;;;;7.23;6.53;;;16.60;99.90;;;;;;5082192;28;20443;-48
2021/06/14 08:53:41;;;;;;;8.10;7.40;;;16.60;99.90;;;;;;5082853;28;20539;-48
2021/06/14 08:56:13;;;;;;;7.10;6.60;;;16.60;99.90;;;;;;5081627;28;20455;-48
2021/06/14 08:58:44;;;;;;;7.97;7.37;;;16.60;99.90;;;;;;5082408;28;20868;-50
2021/06/14 09:01:15;;;;;;;7.67;6.93;;;16.60;99.90;;;;;;5077698;28;20464;-50
2021/06/14 09:03:47;;;;;;;7.87;7.17;;;16.60;99.90;;;;;;5075951;28;20519;-52
2021/06/14 09:06:19;;;;;;;6.80;6.10;;;16.60;99.90;;;;;;5082293;28;20418;-49
2021/06/14 09:09:00;;;;;;;7.13;6.53;;;16.70;99.90;;;;;;5081611;28;20451;-47
2021/06/14 09:11:32;;;;;;;7.70;7.00;;;16.80;99.90;;;;;;5074655;28;20480;-51
2021/06/14 09:14:04;;;;;;;7.23;6.53;;;16.80;99.90;;;;;;5082534;28;20522;-52
2021/06/14 09:16:35;;;;;;;6.80;6.20;;;16.70;99.90;;;;;;5082357;28;20545;-50
2021/06/14 09:19:08;;;;;;;7.43;6.83;;;16.80;99.90;;;;;;5082179;28;20443;-51
2021/06/14 09:21:40;;;;;;;9.10;8.30;;;16.80;99.90;;;;;;5082889;28;20530;-51
2021/06/14 09:24:16;;;;;;;9.07;8.20;;;16.80;99.90;;;;;;5083439;28;20430;-49
2021/06/14 09:26:47;;;;;;;8.10;7.50;;;17.00;99.90;;;;;;5082218;28;20455;-51
2021/06/14 09:29:22;;;;;;;8.23;7.53;;;17.00;99.90;;;;;;5081775;28;20808;-50
2021/06/14 09:31:54;;;;;;;7.97;7.37;;;16.90;99.90;;;;;;5082329;28;20559;-52
2021/06/14 09:34:35;;;;;;;7.40;6.80;;;16.80;99.90;;;;;;5082095;28;20481;-53
2021/06/14 09:37:09;;;;;;;7.30;6.70;;;16.90;99.90;;;;;;5082441;28;20466;-50
2021/06/14 09:39:41;;;;;;;8.20;7.50;;;16.90;99.90;;;;;;5081074;28;20451;-51
2021/06/14 09:42:18;;;;;;;7.70;7.10;;;17.00;99.90;;;;;;5081920;28;20501;-51
2021/06/14 09:44:50;;;;;;;8.43;7.63;;;16.90;99.90;;;;;;5080944;28;20457;-49
2021/06/14 09:47:21;;;;;;;7.83;7.13;;;17.00;99.90;;;;;;5081865;28;20476;-48
2021/06/14 09:50:01;;;;;;;9.30;7.37;;;16.90;99.90;;;;;;5082527;28;20484;-49
2021/06/14 09:52:34;;;;;;;8.10;6.77;;;16.90;99.90;;;;;;5084851;28;20472;-53
2021/06/14 09:55:10;;;;;;;7.50;6.80;;;16.80;99.90;;;;;;5084202;28;20566;-49
2021/06/14 09:57:41;;;;;;;8.13;7.43;;;16.70;99.90;;;;;;5085958;28;20447;-50
2021/06/14 10:00:14;;;;;;;7.50;6.90;;;16.80;99.90;;;;;;5085150;28;20455;-53
2021/06/14 10:02:47;;;;;;;7.30;6.60;;;16.80;99.90;;;;;;5084784;28;20535;-49
2021/06/14 10:05:21;;;;;;;8.47;7.67;;;16.80;99.90;;;;;;5084230;28;20448;-47
2021/06/14 10:07:56;;;;;;;8.20;6.70;;;16.80;99.90;;;;;;5085707;28;20435;-51
2021/06/14 10:10:30;;;;;;;8.27;7.50;;;16.80;99.90;;;;;;5084158;28;20511;-51
2021/06/14 10:13:01;;;;;;;8.23;7.53;;;16.80;99.90;;;;;;5085502;28;20459;-49
2021/06/14 10:15:35;;;;;;;8.00;7.40;;;16.70;99.90;;;;;;5077434;28;20479;-51
2021/06/14 10:18:09;;;;;;;8.37;7.67;;;16.70;99.90;;;;;;5085741;28;20455;-50
2021/06/14 10:20:40;;;;;;;8.60;7.60;;;16.80;99.90;;;;;;5084529;28;20531;-48
2021/06/14 10:23:13;;;;;;;8.40;7.70;;;16.80;99.90;;;;;;5085219;28;20863;-52
2021/06/14 10:25:44;;;;;;;7.43;6.80;;;16.80;99.90;;;;;;5084975;28;20443;-51
2021/06/14 10:28:16;;;;;;;7.73;7.00;;;16.70;99.90;;;;;;5084978;28;20461;-49
2021/06/14 10:30:47;;;;;;;8.07;7.37;;;16.70;99.90;;;;;;5084002;28;20458;-53
2021/06/14 10:33:19;;;;;;;8.20;7.40;;;16.80;99.90;;;;;;5085187;28;20521;-52
2021/06/14 10:35:55;;;;;;;7.33;6.73;;;16.80;99.90;;;;;;5084072;28;20456;-49
2021/06/14 10:38:48;;;;;;;6.90;6.30;;;16.80;99.90;;;;;;5085129;28;20458;-51
2021/06/14 10:41:20;;;;;;;6.80;6.30;;;16.70;99.90;;;;;;5083720;28;20912;-51
2021/06/14 10:43:51;;;;;;;6.80;6.30;;;16.70;99.90;;;;;;5084937;28;20454;-53
2021/06/14 10:46:25;;;;;;;7.20;6.50;;;16.70;99.90;;;;;;5084561;28;20537;-51
2021/06/14 10:49:01;;;;;;;7.60;6.80;;;16.70;99.90;;;;;;5084958;28;20818;-53
2021/06/14 10:51:33;;;;;;;7.53;6.83;;;16.70;99.90;;;;;;5083685;28;20451;-52
2021/06/14 10:54:10;;;;;;;6.70;6.20;;;16.80;99.90;;;;;;5083410;28;20483;-52
2021/06/14 10:56:41;;;;;;;7.53;6.53;;;16.90;99.90;;;;;;5084671;28;20462;-49
2021/06/14 10:59:14;;;;;;;6.90;6.17;;;16.80;99.90;;;;;;5084053;28;20937;-51
2021/06/14 11:01:47;;;;;;;7.37;6.87;;;16.80;99.90;;;;;;5081975;28;20563;-53
2021/06/14 11:04:29;;;;;;;7.73;6.97;;;16.80;99.90;;;;;;5083352;28;20448;-50
2021/06/14 11:07:01;;;;;;;6.90;6.30;;;16.80;99.90;;;;;;5083895;28;20786;-51
2021/06/14 11:09:55;;;;;;;8.13;7.37;;;16.80;99.90;;;;;;5082325;28;20462;-49
2021/06/14 11:12:28;;;;;;;7.40;6.70;;;16.90;99.90;;;;;;5084664;28;20924;-48
2021/06/14 11:15:10;;;;;;;7.70;7.10;;;16.80;99.90;;;;;;5082809;28;20479;-50
2021/06/14 11:17:41;;;;;;;7.50;6.80;;;16.90;99.90;;;;;;5084704;28;20444;-49
2021/06/14 11:20:14;;;;;;;7.90;7.30;;;16.80;99.90;;;;;;5083260;28;20475;-49
2021/06/14 11:22:47;;;;;;;7.20;6.60;;;16.80;99.90;;;;;;5079880;28;20448;-51
2021/06/14 11:25:25;;;;;;;6.53;6.03;;;16.80;99.90;;;;;;5082677;28;20821;-48
2021/06/14 11:27:56;;;;;;;6.70;6.20;;;16.80;99.90;;;;;;5084081;28;20507;-49
2021/06/14 11:30:29;;;;;;;9.60;7.40;;;16.90;99.90;;;;;;5083381;28;20477;-47
2021/06/14 11:33:01;;;;;;;8.90;8.10;;;16.90;99.90;;;;;;5083605;28;20444;-49
2021/06/14 11:35:34;;;;;;;7.73;7.03;;;16.90;99.90;;;;;;5082787;28;20636;-49
2021/06/14 11:38:17;;;;;;;8.23;7.63;;;17.00;99.90;;;;;;5083191;28;20447;-48
2021/06/14 11:40:58;;;;;;;7.93;7.23;;;16.90;99.90;;;;;;5082269;28;20474;-50
2021/06/14 11:43:29;;;;;;;7.37;6.77;;;16.90;99.90;;;;;;5083673;28;20535;-53
2021/06/14 11:46:03;;;;;;;7.57;6.87;;;16.80;99.90;;;;;;5082580;28;20448;-52
2021/06/14 11:48:56;;;;;;;7.13;6.53;;;16.80;99.90;;;;;;5083517;28;20912;-53
2021/06/14 11:51:35;;;;;;;8.87;7.97;;;16.80;99.90;;;;;;5083094;28;20487;-53
2021/06/14 11:54:08;;;;;;;8.03;7.40;;;16.80;99.90;;;;;;5082604;28;20585;-49
2021/06/14 11:56:40;;;;;;;9.40;8.60;;;16.80;99.90;;;;;;5083077;28;20486;-52
2021/06/14 11:59:12;;;;;;;7.77;7.13;;;16.90;99.90;;;;;;5070904;28;20514;-54
2021/06/14 12:01:43;;;;;;;7.10;6.50;;;16.80;99.90;;;;;;5082415;28;20462;-54
2021/06/14 12:04:24;;;;;;;8.90;8.20;;;16.80;99.90;;;;;;5082864;28;20457;-48
2021/06/14 12:06:56;;;;;;;8.27;7.60;;;16.80;99.90;;;;;;5076863;28;20909;-49
2021/06/14 12:09:27;;;;;;;8.67;7.97;;;16.70;99.90;;;;;;5082500;28;20941;-49
2021/06/14 12:12:02;;;;;;;9.03;7.87;;;16.80;99.90;;;;;;5082809;28;20472;-48
2021/06/14 12:14:34;;;;;;;8.60;7.90;;;16.80;99.90;;;;;;5083267;28;20555;-50
2021/06/14 12:17:07;;;;;;;8.03;7.40;;;16.80;99.90;;;;;;5083434;28;20451;-49
2021/06/14 12:19:41;;;;;;;8.40;7.80;;;16.70;99.90;;;;;;5082810;28;20523;-51
2021/06/14 12:22:12;;;;;;;9.33;8.50;;;16.70;99.90;;;;;;5082802;28;20494;-53
2021/06/14 12:24:43;;;;;;;8.63;7.93;;;16.70;99.90;;;;;;5082349;28;20467;-50
2021/06/14 12:27:16;;;;;;;9.60;8.83;;;16.80;99.90;;;;;;5083174;28;20505;-51
2021/06/14 12:29:47;;;;;;;9.63;8.93;;;16.80;99.90;;;;;;5082714;28;20493;-50
2021/06/14 12:32:20;;;;;;;9.37;8.47;;;17.00;99.90;;;;;;5082817;28;20440;-51
2021/06/14 12:34:51;;;;;;;8.73;7.93;;;16.90;99.90;;;;;;5073674;28;20475;-49
2021/06/14 12:37:24;;;;;;;8.67;7.90;;;16.80;99.90;;;;;;5082903;28;20455;-51
2021/06/14 12:40:00;;;;;;;8.43;7.83;;;16.80;99.90;;;;;;5081818;28;20469;-50
2021/06/14 12:42:33;;;;;;;7.70;7.10;;;16.80;99.90;;;;;;5082971;28;20455;-54
2021/06/14 12:45:07;;;;;;;8.63;7.93;;;16.70;99.90;;;;;;5082777;28;20479;-52
2021/06/14 12:47:43;;;;;;;7.80;7.10;;;16.70;99.90;;;;;;5082661;28;20479;-52
2021/06/14 12:50:19;;;;;;;8.00;7.30;;;16.80;99.90;;;;;;5080295;28;20443;-51
2021/06/14 12:52:50;;;;;;;8.13;7.40;;;16.80;99.90;;;;;;5078726;28;20447;-48
2021/06/14 12:55:22;;;;;;;7.77;7.07;;;16.90;99.90;;;;;;5081922;28;20952;-50
2021/06/14 12:58:02;;;;;;;7.60;6.90;;;16.90;99.90;;;;;;5082714;28;20935;-50
2021/06/14 13:00:35;;;;;;;7.63;6.90;;;17.00;99.90;;;;;;5082286;28;20490;-51
2021/06/14 13:03:07;;;;;;;7.87;7.20;;;17.00;99.90;;;;;;5073514;28;20768;-49
2021/06/14 13:05:41;;;;;;;8.03;7.43;;;17.00;99.90;;;;;;5082264;28;20443;-48
2021/06/14 13:08:15;;;;;;;8.73;8.03;;;17.00;99.90;;;;;;5081953;28;20588;-52
2021/06/14 13:10:47;;;;;;;8.03;7.33;;;17.00;99.90;;;;;;5081368;28;20452;-48
2021/06/14 13:13:22;;;;;;;7.67;7.07;;;17.00;99.90;;;;;;5082573;28;20450;-48
2021/06/14 13:15:57;;;;;;;7.40;6.70;;;17.00;99.90;;;;;;5082082;28;20951;-50
2021/06/14 13:18:28;;;;;;;9.13;7.67;;;17.00;99.90;;;;;;5082434;28;20464;-50
2021/06/14 13:21:07;;;;;;;8.60;7.80;;;17.10;99.90;;;;;;5082016;28;20463;-50